sensor_id;sensor_type;location;lat;lon;timestamp;pressure;altitude;pressure_sealevel;temperature
12126;BMP180;6126;57.908;16.490;2022-11-20T00:01:21;101526.78;;;-0.50
12126;BMP180;6126;57.908;16.490;2022-11-20T00:03:48;101506.25;;;-0.50
12126;BMP180;6126;57.908;16.490;2022-11-20T00:06:17;101519.94;;;-0.51
12126;BMP180;6126;57.908;16.490;2022-11-20T00:08:44;101506.25;;;-0.50
12126;BMP180;6126;57.908;16.490;2022-11-20T00:11:17;101509.72;;;-0.48
12126;BMP180;6126;57.908;16.490;2022-11-20T00:13:45;101503.69;;;-0.50
12126;BMP180;6126;57.908;16.490;2022-11-20T00:16:14;101502.81;;;-0.52
12126;BMP180;6126;57.908;16.490;2022-11-20T00:18:40;101495.97;;;-0.51
12126;BMP180;6126;57.908;16.490;2022-11-20T00:21:14;101502.00;;;-0.49
12126;BMP180;6126;57.908;16.490;2022-11-20T00:23:41;101496.06;;;-0.47
12126;BMP180;6126;57.908;16.490;2022-11-20T00:26:15;101497.75;;;-0.44
12126;BMP180;6126;57.908;16.490;2022-11-20T00:28:43;101486.63;;;-0.45
12126;BMP180;6126;57.908;16.490;2022-11-20T00:31:14;101499.47;;;-0.45
12126;BMP180;6126;57.908;16.490;2022-11-20T00:33:42;101482.34;;;-0.44
12126;BMP180;6126;57.908;16.490;2022-11-20T00:36:21;101502.06;;;-0.42
12126;BMP180;6126;57.908;16.490;2022-11-20T00:38:51;101489.25;;;-0.42
12126;BMP180;6126;57.908;16.490;2022-11-20T00:41:17;101492.63;;;-0.44
12126;BMP180;6126;57.908;16.490;2022-11-20T00:43:43;101487.50;;;-0.46
12126;BMP180;6126;57.908;16.490;2022-11-20T00:46:24;101472.06;;;-0.49
12126;BMP180;6126;57.908;16.490;2022-11-20T00:48:51;101469.44;;;-0.50
12126;BMP180;6126;57.908;16.490;2022-11-20T00:51:21;101466.91;;;-0.47
12126;BMP180;6126;57.908;16.490;2022-11-20T00:53:47;101472.94;;;-0.45
12126;BMP180;6126;57.908;16.490;2022-11-20T00:56:16;101479.78;;;-0.46
12126;BMP180;6126;57.908;16.490;2022-11-20T00:58:45;101467.81;;;-0.47
12126;BMP180;6126;57.908;16.490;2022-11-20T01:01:22;101467.84;;;-0.44
12126;BMP180;6126;57.908;16.490;2022-11-20T01:03:54;101462.75;;;-0.41
12126;BMP180;6126;57.908;16.490;2022-11-20T01:06:33;101456.78;;;-0.37
12126;BMP180;6126;57.908;16.490;2022-11-20T01:09:10;101462.81;;;-0.35
12126;BMP180;6126;57.908;16.490;2022-11-20T01:11:40;101468.81;;;-0.33
12126;BMP180;6126;57.908;16.490;2022-11-20T01:14:14;101466.28;;;-0.30
12126;BMP180;6126;57.908;16.490;2022-11-20T01:16:44;101456.91;;;-0.28
12126;BMP180;6126;57.908;16.490;2022-11-20T01:19:15;101465.47;;;-0.26
12126;BMP180;6126;57.908;16.490;2022-11-20T01:21:44;101470.59;;;-0.26
12126;BMP180;6126;57.908;16.490;2022-11-20T01:24:17;101449.19;;;-0.27
12126;BMP180;6126;57.908;16.490;2022-11-20T01:26:44;101462.06;;;-0.25
12126;BMP180;6126;57.908;16.490;2022-11-20T01:29:17;101463.75;;;-0.27
12126;BMP180;6126;57.908;16.490;2022-11-20T01:31:43;101469.75;;;-0.27
12126;BMP180;6126;57.908;16.490;2022-11-20T01:34:14;101455.19;;;-0.26
12126;BMP180;6126;57.908;16.490;2022-11-20T01:36:42;101457.78;;;-0.25
12126;BMP180;6126;57.908;16.490;2022-11-20T01:39:13;101456.94;;;-0.25
12126;BMP180;6126;57.908;16.490;2022-11-20T01:41:39;101456.94;;;-0.24
12126;BMP180;6126;57.908;16.490;2022-11-20T01:47:40;101453.50;;;-0.24
12126;BMP180;6126;57.908;16.490;2022-11-20T01:50:20;101442.38;;;-0.25
12126;BMP180;6126;57.908;16.490;2022-11-20T01:53:01;101448.34;;;-0.29
12126;BMP180;6126;57.908;16.490;2022-11-20T01:55:33;101447.47;;;-0.31
12126;BMP180;6126;57.908;16.490;2022-11-20T01:58:01;101443.16;;;-0.33
12126;BMP180;6126;57.908;16.490;2022-11-20T02:00:27;101441.41;;;-0.34
12126;BMP180;6126;57.908;16.490;2022-11-20T02:03:08;101434.56;;;-0.35
12126;BMP180;6126;57.908;16.490;2022-11-20T02:08:33;101438.88;;;-0.32
12126;BMP180;6126;57.908;16.490;2022-11-20T02:10:59;101421.78;;;-0.29
12126;BMP180;6126;57.908;16.490;2022-11-20T02:13:25;101438.91;;;-0.30
12126;BMP180;6126;57.908;16.490;2022-11-20T02:16:26;101422.66;;;-0.27
12126;BMP180;6126;57.908;16.490;2022-11-20T02:18:59;101424.38;;;-0.26
12126;BMP180;6126;57.908;16.490;2022-11-20T02:21:41;101412.38;;;-0.27
12126;BMP180;6126;57.908;16.490;2022-11-20T02:24:17;101417.56;;;-0.26
12126;BMP180;6126;57.908;16.490;2022-11-20T02:27:21;101404.69;;;-0.27
12126;BMP180;6126;57.908;16.490;2022-11-20T02:29:57;101396.94;;;-0.30
12126;BMP180;6126;57.908;16.490;2022-11-20T02:32:29;101400.34;;;-0.32
12126;BMP180;6126;57.908;16.490;2022-11-20T02:34:56;101391.78;;;-0.32
12126;BMP180;6126;57.908;16.490;2022-11-20T02:37:23;101394.41;;;-0.29
12126;BMP180;6126;57.908;16.490;2022-11-20T02:39:53;101406.41;;;-0.28
12126;BMP180;6126;57.908;16.490;2022-11-20T02:42:19;101393.56;;;-0.28
12126;BMP180;6126;57.908;16.490;2022-11-20T02:44:45;101385.84;;;-0.26
12126;BMP180;6126;57.908;16.490;2022-11-20T02:47:11;101385.84;;;-0.26
12126;BMP180;6126;57.908;16.490;2022-11-20T02:49:36;101373.88;;;-0.27
12126;BMP180;6126;57.908;16.490;2022-11-20T02:52:02;101377.25;;;-0.30
12126;BMP180;6126;57.908;16.490;2022-11-20T02:54:28;101379.84;;;-0.31
12126;BMP180;6126;57.908;16.490;2022-11-20T02:56:54;101370.34;;;-0.35
12126;BMP180;6126;57.908;16.490;2022-11-20T02:59:20;101366.94;;;-0.34
12126;BMP180;6126;57.908;16.490;2022-11-20T03:01:46;101372.09;;;-0.32
12126;BMP180;6126;57.908;16.490;2022-11-20T03:04:11;101367.00;;;-0.30
12126;BMP180;6126;57.908;16.490;2022-11-20T03:06:37;101362.72;;;-0.26
12126;BMP180;6126;57.908;16.490;2022-11-20T03:09:03;101367.06;;;-0.22
12126;BMP180;6126;57.908;16.490;2022-11-20T03:11:29;101363.66;;;-0.23
12126;BMP180;6126;57.908;16.490;2022-11-20T03:13:55;101350.81;;;-0.23
12126;BMP180;6126;57.908;16.490;2022-11-20T03:16:22;101345.66;;;-0.21
12126;BMP180;6126;57.908;16.490;2022-11-20T03:18:49;101348.22;;;-0.23
12126;BMP180;6126;57.908;16.490;2022-11-20T03:21:16;101343.06;;;-0.24
12126;BMP180;6126;57.908;16.490;2022-11-20T03:23:42;101355.09;;;-0.23
12126;BMP180;6126;57.908;16.490;2022-11-20T03:28:39;101356.75;;;-0.24
12126;BMP180;6126;57.908;16.490;2022-11-20T03:31:14;101343.09;;;-0.23
12126;BMP180;6126;57.908;16.490;2022-11-20T03:33:41;101342.28;;;-0.20
12126;BMP180;6126;57.908;16.490;2022-11-20T03:36:12;101340.56;;;-0.20
12126;BMP180;6126;57.908;16.490;2022-11-20T03:38:39;101338.78;;;-0.24
12126;BMP180;6126;57.908;16.490;2022-11-20T03:41:13;101342.25;;;-0.23
12126;BMP180;6126;57.908;16.490;2022-11-20T03:43:39;101327.69;;;-0.23
12126;BMP180;6126;57.908;16.490;2022-11-20T03:46:06;101323.38;;;-0.24
12126;BMP180;6126;57.908;16.490;2022-11-20T03:48:32;101320.78;;;-0.27
12126;BMP180;6126;57.908;16.490;2022-11-20T03:53:42;101316.44;;;-0.35
12126;BMP180;6126;57.908;16.490;2022-11-20T03:56:10;101310.41;;;-0.37
12126;BMP180;6126;57.908;16.490;2022-11-20T03:58:38;101309.50;;;-0.42
12126;BMP180;6126;57.908;16.490;2022-11-20T04:01:11;101306.97;;;-0.40
12126;BMP180;6126;57.908;16.490;2022-11-20T04:03:39;101299.25;;;-0.40
12126;BMP180;6126;57.908;16.490;2022-11-20T04:06:12;101312.97;;;-0.41
12126;BMP180;6126;57.908;16.490;2022-11-20T04:08:39;101301.81;;;-0.43
12126;BMP180;6126;57.908;16.490;2022-11-20T04:11:16;101299.22;;;-0.45
12126;BMP180;6126;57.908;16.490;2022-11-20T04:13:46;101294.06;;;-0.48
12126;BMP180;6126;57.908;16.490;2022-11-20T04:16:13;101294.06;;;-0.49
12126;BMP180;6126;57.908;16.490;2022-11-20T04:18:39;101294.88;;;-0.50
12126;BMP180;6126;57.908;16.490;2022-11-20T04:21:06;101294.84;;;-0.53
12126;BMP180;6126;57.908;16.490;2022-11-20T04:23:32;101294.00;;;-0.54
12126;BMP180;6126;57.908;16.490;2022-11-20T04:26:11;101283.72;;;-0.52
12126;BMP180;6126;57.908;16.490;2022-11-20T04:28:38;101273.44;;;-0.55
12126;BMP180;6126;57.908;16.490;2022-11-20T04:31:11;101278.56;;;-0.57
12126;BMP180;6126;57.908;16.490;2022-11-20T04:33:38;101288.84;;;-0.57
12126;BMP180;6126;57.908;16.490;2022-11-20T04:36:07;101277.72;;;-0.56
12126;BMP180;6126;57.908;16.490;2022-11-20T04:38:36;101269.19;;;-0.53
12126;BMP180;6126;57.908;16.490;2022-11-20T04:41:06;101269.22;;;-0.52
12126;BMP180;6126;57.908;16.490;2022-11-20T04:43:33;101269.22;;;-0.52
12126;BMP180;6126;57.908;16.490;2022-11-20T04:46:00;101270.06;;;-0.50
12126;BMP180;6126;57.908;16.490;2022-11-20T04:48:28;101270.97;;;-0.46
12126;BMP180;6126;57.908;16.490;2022-11-20T04:50:54;101267.59;;;-0.44
12126;BMP180;6126;57.908;16.490;2022-11-20T04:53:21;101259.91;;;-0.39
12126;BMP180;6126;57.908;16.490;2022-11-20T04:55:47;101262.50;;;-0.38
12126;BMP180;6126;57.908;16.490;2022-11-20T04:58:14;101259.06;;;-0.37
12126;BMP180;6126;57.908;16.490;2022-11-20T05:00:40;101253.09;;;-0.36
12126;BMP180;6126;57.908;16.490;2022-11-20T05:03:06;101245.38;;;-0.34
12126;BMP180;6126;57.908;16.490;2022-11-20T05:05:34;101241.97;;;-0.35
12126;BMP180;6126;57.908;16.490;2022-11-20T05:08:01;101241.09;;;-0.34
12126;BMP180;6126;57.908;16.490;2022-11-20T05:10:27;101239.41;;;-0.32
12126;BMP180;6126;57.908;16.490;2022-11-20T05:12:53;101232.63;;;-0.29
12126;BMP180;6126;57.908;16.490;2022-11-20T05:15:19;101242.91;;;-0.24
12126;BMP180;6126;57.908;16.490;2022-11-20T05:17:52;101226.66;;;-0.22
12126;BMP180;6126;57.908;16.490;2022-11-20T05:20:18;101225.81;;;-0.19
12126;BMP180;6126;57.908;16.490;2022-11-20T05:22:45;101214.72;;;-0.17
12126;BMP180;6126;57.908;16.490;2022-11-20T05:25:11;101221.56;;;-0.16
12126;BMP180;6126;57.908;16.490;2022-11-20T05:27:37;101228.44;;;-0.15
12126;BMP180;6126;57.908;16.490;2022-11-20T05:30:04;101222.44;;;-0.15
12126;BMP180;6126;57.908;16.490;2022-11-20T05:32:31;101225.00;;;-0.14
12126;BMP180;6126;57.908;16.490;2022-11-20T05:34:56;101225.00;;;-0.14
12126;BMP180;6126;57.908;16.490;2022-11-20T05:37:22;101215.59;;;-0.15
12126;BMP180;6126;57.908;16.490;2022-11-20T05:39:48;101219.03;;;-0.14
12126;BMP180;6126;57.908;16.490;2022-11-20T05:42:14;101218.16;;;-0.15
12126;BMP180;6126;57.908;16.490;2022-11-20T05:45:00;101217.31;;;-0.15
12126;BMP180;6126;57.908;16.490;2022-11-20T05:47:32;101213.00;;;-0.16
12126;BMP180;6126;57.908;16.490;2022-11-20T05:49:58;101214.72;;;-0.17
12126;BMP180;6126;57.908;16.490;2022-11-20T05:52:24;101219.00;;;-0.17
12126;BMP180;6126;57.908;16.490;2022-11-20T05:54:53;101208.72;;;-0.20
12126;BMP180;6126;57.908;16.490;2022-11-20T05:57:19;101205.28;;;-0.19
12126;BMP180;6126;57.908;16.490;2022-11-20T05:59:44;101207.00;;;-0.18
12126;BMP180;6126;57.908;16.490;2022-11-20T06:02:10;101203.59;;;-0.17
12126;BMP180;6126;57.908;16.490;2022-11-20T06:04:36;101209.59;;;-0.15
12126;BMP180;6126;57.908;16.490;2022-11-20T06:07:02;101207.91;;;-0.15
12126;BMP180;6126;57.908;16.490;2022-11-20T06:09:28;101204.47;;;-0.14
12126;BMP180;6126;57.908;16.490;2022-11-20T06:11:54;101195.03;;;-0.13
12126;BMP180;6126;57.908;16.490;2022-11-20T06:14:20;101186.50;;;-0.12
12126;BMP180;6126;57.908;16.490;2022-11-20T06:16:46;101187.34;;;-0.12
12126;BMP180;6126;57.908;16.490;2022-11-20T06:19:11;101192.53;;;-0.10
12126;BMP180;6126;57.908;16.490;2022-11-20T06:21:37;101189.06;;;-0.11
12126;BMP180;6126;57.908;16.490;2022-11-20T06:24:03;101179.69;;;-0.10
12126;BMP180;6126;57.908;16.490;2022-11-20T06:26:30;101179.69;;;-0.10
12126;BMP180;6126;57.908;16.490;2022-11-20T06:28:56;101179.69;;;-0.10
12126;BMP180;6126;57.908;16.490;2022-11-20T06:31:24;101183.06;;;-0.11
12126;BMP180;6126;57.908;16.490;2022-11-20T06:33:51;101176.22;;;-0.12
12126;BMP180;6126;57.908;16.490;2022-11-20T06:36:21;101174.50;;;-0.13
12126;BMP180;6126;57.908;16.490;2022-11-20T06:38:48;101172.78;;;-0.14
12126;BMP180;6126;57.908;16.490;2022-11-20T06:41:18;101176.22;;;-0.15
12126;BMP180;6126;57.908;16.490;2022-11-20T06:43:44;101177.91;;;-0.16
12126;BMP180;6126;57.908;16.490;2022-11-20T06:46:12;101171.94;;;-0.15
12126;BMP180;6126;57.908;16.490;2022-11-20T06:48:40;101163.38;;;-0.14
12126;BMP180;6126;57.908;16.490;2022-11-20T06:51:07;101165.94;;;-0.15
12126;BMP180;6126;57.908;16.490;2022-11-20T06:53:34;101169.34;;;-0.16
12126;BMP180;6126;57.908;16.490;2022-11-20T06:56:00;101160.81;;;-0.15
12126;BMP180;6126;57.908;16.490;2022-11-20T06:58:28;101159.94;;;-0.14
12126;BMP180;6126;57.908;16.490;2022-11-20T07:01:05;101153.94;;;-0.13
12126;BMP180;6126;57.908;16.490;2022-11-20T07:03:31;101162.53;;;-0.11
12126;BMP180;6126;57.908;16.490;2022-11-20T07:06:00;101162.53;;;-0.11
12126;BMP180;6126;57.908;16.490;2022-11-20T07:08:26;101164.25;;;-0.09
12126;BMP180;6126;57.908;16.490;2022-11-20T07:10:52;101157.41;;;-0.08
12126;BMP180;6126;57.908;16.490;2022-11-20T07:13:18;101142.00;;;-0.07
12126;BMP180;6126;57.908;16.490;2022-11-20T07:15:44;101148.88;;;-0.04
12126;BMP180;6126;57.908;16.490;2022-11-20T07:18:09;101154.00;;;-0.03
12126;BMP180;6126;57.908;16.490;2022-11-20T07:20:35;101136.91;;;-0.02
12126;BMP180;6126;57.908;16.490;2022-11-20T07:23:01;101140.31;;;-0.01
12126;BMP180;6126;57.908;16.490;2022-11-20T07:25:28;101150.63;;;0.01
12126;BMP180;6126;57.908;16.490;2022-11-20T07:28:00;101132.63;;;0.02
12126;BMP180;6126;57.908;16.490;2022-11-20T07:30:30;101126.63;;;0.02
12126;BMP180;6126;57.908;16.490;2022-11-20T07:32:57;101127.50;;;0.01
12126;BMP180;6126;57.908;16.490;2022-11-20T07:35:24;101135.22;;;0.01
12126;BMP180;6126;57.908;16.490;2022-11-20T07:37:50;101137.75;;;-0.02
12126;BMP180;6126;57.908;16.490;2022-11-20T07:40:17;101137.75;;;-0.05
12126;BMP180;6126;57.908;16.490;2022-11-20T07:42:54;101133.47;;;-0.04
12126;BMP180;6126;57.908;16.490;2022-11-20T07:45:23;101132.63;;;-0.01
12126;BMP180;6126;57.908;16.490;2022-11-20T07:47:50;101124.06;;;0.00
12126;BMP180;6126;57.908;16.490;2022-11-20T07:50:16;101130.91;;;0.01
12126;BMP180;6126;57.908;16.490;2022-11-20T07:52:42;101135.19;;;0.02
12126;BMP180;6126;57.908;16.490;2022-11-20T07:55:09;101133.50;;;0.03
12126;BMP180;6126;57.908;16.490;2022-11-20T07:57:36;101130.94;;;0.06
12126;BMP180;6126;57.908;16.490;2022-11-20T08:00:03;101128.38;;;0.07
12126;BMP180;6126;57.908;16.490;2022-11-20T08:02:29;101133.53;;;0.10
12126;BMP180;6126;57.908;16.490;2022-11-20T08:04:55;101133.56;;;0.13
12126;BMP180;6126;57.908;16.490;2022-11-20T08:07:21;101119.84;;;0.14
12126;BMP180;6126;57.908;16.490;2022-11-20T08:09:47;101113.00;;;0.16
12126;BMP180;6126;57.908;16.490;2022-11-20T08:12:20;101115.59;;;0.16
12126;BMP180;6126;57.908;16.490;2022-11-20T08:15:06;101101.03;;;0.18
12126;BMP180;6126;57.908;16.490;2022-11-20T08:17:32;101113.88;;;0.20
12126;BMP180;6126;57.908;16.490;2022-11-20T08:19:58;101095.91;;;0.21
12126;BMP180;6126;57.908;16.490;2022-11-20T08:22:24;101107.03;;;0.22
12126;BMP180;6126;57.908;16.490;2022-11-20T08:24:50;101101.88;;;0.23
12126;BMP180;6126;57.908;16.490;2022-11-20T08:27:16;101101.91;;;0.25
12126;BMP180;6126;57.908;16.490;2022-11-20T08:29:42;101094.22;;;0.26
12126;BMP180;6126;57.908;16.490;2022-11-20T08:32:08;101097.63;;;0.28
12126;BMP180;6126;57.908;16.490;2022-11-20T08:34:33;101083.06;;;0.29
12126;BMP180;6126;57.908;16.490;2022-11-20T08:37:01;101082.19;;;0.28
12126;BMP180;6126;57.908;16.490;2022-11-20T08:39:28;101089.94;;;0.30
12126;BMP180;6126;57.908;16.490;2022-11-20T08:41:53;101084.78;;;0.28
12126;BMP180;6126;57.908;16.490;2022-11-20T08:44:19;101083.91;;;0.28
12126;BMP180;6126;57.908;16.490;2022-11-20T08:46:45;101072.78;;;0.29
12126;BMP180;6126;57.908;16.490;2022-11-20T08:49:14;101082.22;;;0.30
12126;BMP180;6126;57.908;16.490;2022-11-20T08:51:40;101069.34;;;0.31
12126;BMP180;6126;57.908;16.490;2022-11-20T08:54:07;101066.78;;;0.31
12126;BMP180;6126;57.908;16.490;2022-11-20T08:56:33;101061.69;;;0.34
12126;BMP180;6126;57.908;16.490;2022-11-20T08:58:59;101061.69;;;0.37
12126;BMP180;6126;57.908;16.490;2022-11-20T09:01:26;101056.53;;;0.40
12126;BMP180;6126;57.908;16.490;2022-11-20T09:03:52;101058.25;;;0.44
12126;BMP180;6126;57.908;16.490;2022-11-20T09:06:18;101047.13;;;0.48
12126;BMP180;6126;57.908;16.490;2022-11-20T09:08:44;101042.88;;;0.50
12126;BMP180;6126;57.908;16.490;2022-11-20T09:11:10;101043.72;;;0.53
12126;BMP180;6126;57.908;16.490;2022-11-20T09:13:36;101033.44;;;0.55
12126;BMP180;6126;57.908;16.490;2022-11-20T09:16:08;101038.56;;;0.59
12126;BMP180;6126;57.908;16.490;2022-11-20T09:18:36;101039.44;;;0.60
12126;BMP180;6126;57.908;16.490;2022-11-20T09:21:12;101044.59;;;0.62
12126;BMP180;6126;57.908;16.490;2022-11-20T09:23:40;101032.59;;;0.66
12126;BMP180;6126;57.908;16.490;2022-11-20T09:26:13;101028.31;;;0.69
12126;BMP180;6126;57.908;16.490;2022-11-20T09:28:39;101027.47;;;0.73
12126;BMP180;6126;57.908;16.490;2022-11-20T09:31:17;101022.31;;;0.73
12126;BMP180;6126;57.908;16.490;2022-11-20T09:33:45;101021.47;;;0.73
12126;BMP180;6126;57.908;16.490;2022-11-20T09:36:10;101024.03;;;0.73
12126;BMP180;6126;57.908;16.490;2022-11-20T09:38:36;101018.00;;;0.72
12126;BMP180;6126;57.908;16.490;2022-11-20T09:41:06;101018.88;;;0.71
12126;BMP180;6126;57.908;16.490;2022-11-20T09:47:11;100990.56;;;0.70
12126;BMP180;6126;57.908;16.490;2022-11-20T09:55:48;100984.56;;;0.69
12126;BMP180;6126;57.908;16.490;2022-11-20T09:58:32;100989.72;;;0.66
12126;BMP180;6126;57.908;16.490;2022-11-20T10:01:18;100978.56;;;0.64
12126;BMP180;6126;57.908;16.490;2022-11-20T10:04:04;100972.59;;;0.65
12126;BMP180;6126;57.908;16.490;2022-11-20T10:06:41;100981.16;;;0.69
12126;BMP180;6126;57.908;16.490;2022-11-20T10:09:16;100982.88;;;0.71
12126;BMP180;6126;57.908;16.490;2022-11-20T10:17:17;100969.16;;;0.69
12126;BMP180;6126;57.908;16.490;2022-11-20T10:25:38;100954.59;;;0.68
12126;BMP180;6126;57.908;16.490;2022-11-20T10:31:08;100935.75;;;0.65
12126;BMP180;6126;57.908;16.490;2022-11-20T10:33:41;100945.16;;;0.63
12126;BMP180;6126;57.908;16.490;2022-11-20T10:36:21;100936.59;;;0.62
12126;BMP180;6126;57.908;16.490;2022-11-20T10:41:31;100929.72;;;0.59
12126;BMP180;6126;57.908;16.490;2022-11-20T10:44:15;100928.88;;;0.52
12126;BMP180;6126;57.908;16.490;2022-11-20T10:47:03;100929.72;;;0.47
12126;BMP180;6126;57.908;16.490;2022-11-20T10:49:32;100926.28;;;0.43
12126;BMP180;6126;57.908;16.490;2022-11-20T10:54:48;100917.72;;;0.46
12126;BMP180;6126;57.908;16.490;2022-11-20T10:57:48;100910.00;;;0.49
12126;BMP180;6126;57.908;16.490;2022-11-20T11:00:17;100905.72;;;0.51
12126;BMP180;6126;57.908;16.490;2022-11-20T11:02:53;100901.44;;;0.50
12126;BMP180;6126;57.908;16.490;2022-11-20T11:05:29;100898.88;;;0.51
12126;BMP180;6126;57.908;16.490;2022-11-20T11:07:59;100904.88;;;0.55
12126;BMP180;6126;57.908;16.490;2022-11-20T11:13:04;100880.84;;;0.57
12126;BMP180;6126;57.908;16.490;2022-11-20T11:15:40;100878.28;;;0.54
12126;BMP180;6126;57.908;16.490;2022-11-20T11:18:10;100878.28;;;0.59
12126;BMP180;6126;57.908;16.490;2022-11-20T11:20:37;100883.44;;;0.59
12126;BMP180;6126;57.908;16.490;2022-11-20T11:23:03;100875.72;;;0.56
12126;BMP180;6126;57.908;16.490;2022-11-20T11:25:36;100874.84;;;0.60
12126;BMP180;6126;57.908;16.490;2022-11-20T11:28:21;100875.72;;;0.63
12126;BMP180;6126;57.908;16.490;2022-11-20T11:30:50;100859.44;;;0.65
12126;BMP180;6126;57.908;16.490;2022-11-20T11:33:28;100862.84;;;0.67
12126;BMP180;6126;57.908;16.490;2022-11-20T11:36:15;100861.13;;;0.69
12126;BMP180;6126;57.908;16.490;2022-11-20T11:38:44;100847.44;;;0.70
12126;BMP180;6126;57.908;16.490;2022-11-20T11:41:20;100843.13;;;0.72
12126;BMP180;6126;57.908;16.490;2022-11-20T11:43:55;100838.84;;;0.74
12126;BMP180;6126;57.908;16.490;2022-11-20T11:46:53;100839.69;;;0.75
12126;BMP180;6126;57.908;16.490;2022-11-20T11:49:20;100833.69;;;0.71
12126;BMP180;6126;57.908;16.490;2022-11-20T11:57:26;100829.41;;;0.76
12126;BMP180;6126;57.908;16.490;2022-11-20T12:05:23;100831.09;;;0.85
12126;BMP180;6126;57.908;16.490;2022-11-20T12:08:49;100817.34;;;0.90
12126;BMP180;6126;57.908;16.490;2022-11-20T12:13:48;100811.31;;;1.00
12126;BMP180;6126;57.908;16.490;2022-11-20T12:16:19;100805.31;;;0.99
12126;BMP180;6126;57.908;16.490;2022-11-20T12:18:50;100790.72;;;1.03
12126;BMP180;6126;57.908;16.490;2022-11-20T12:24:40;100788.13;;;1.07
12126;BMP180;6126;57.908;16.490;2022-11-20T12:30:04;100773.56;;;1.02
12126;BMP180;6126;57.908;16.490;2022-11-20T12:35:56;100748.72;;;0.95
12126;BMP180;6126;57.908;16.490;2022-11-20T12:38:45;100755.56;;;0.96
12126;BMP180;6126;57.908;16.490;2022-11-20T12:52:50;100728.16;;;0.92
12126;BMP180;6126;57.908;16.490;2022-11-20T13:01:22;100712.75;;;0.89
12126;BMP180;6126;57.908;16.490;2022-11-20T13:07:25;100704.16;;;0.92
12126;BMP180;6126;57.908;16.490;2022-11-20T13:09:54;100698.16;;;0.90
12126;BMP180;6126;57.908;16.490;2022-11-20T13:12:53;100703.31;;;0.91
12126;BMP180;6126;57.908;16.490;2022-11-20T13:18:16;100696.47;;;0.87
12126;BMP180;6126;57.908;16.490;2022-11-20T13:20:45;100689.59;;;0.89
12126;BMP180;6126;57.908;16.490;2022-11-20T13:23:11;100693.91;;;0.89
12126;BMP180;6126;57.908;16.490;2022-11-20T13:25:39;100675.88;;;0.87
12126;BMP180;6126;57.908;16.490;2022-11-20T13:30:50;100673.31;;;0.86
12126;BMP180;6126;57.908;16.490;2022-11-20T13:33:33;100658.75;;;0.86
12126;BMP180;6126;57.908;16.490;2022-11-20T13:36:05;100663.03;;;0.84
12126;BMP180;6126;57.908;16.490;2022-11-20T13:38:48;100660.47;;;0.84
12126;BMP180;6126;57.908;16.490;2022-11-20T13:41:36;100657.91;;;0.81
12126;BMP180;6126;57.908;16.490;2022-11-20T13:44:15;100658.75;;;0.80
12126;BMP180;6126;57.908;16.490;2022-11-20T13:46:47;100649.34;;;0.81
12126;BMP180;6126;57.908;16.490;2022-11-20T13:52:45;100651.91;;;0.79
12126;BMP180;6126;57.908;16.490;2022-11-20T14:00:30;100643.34;;;0.77
12126;BMP180;6126;57.908;16.490;2022-11-20T14:03:17;100641.66;;;0.76
12126;BMP180;6126;57.908;16.490;2022-11-20T14:06:00;100622.81;;;0.76
12126;BMP180;6126;57.908;16.490;2022-11-20T14:08:44;100617.66;;;0.74
12126;BMP180;6126;57.908;16.490;2022-11-20T14:11:22;100617.66;;;0.74
12126;BMP180;6126;57.908;16.490;2022-11-20T14:16:32;100613.34;;;0.76
12126;BMP180;6126;57.908;16.490;2022-11-20T14:21:53;100602.25;;;0.71
12126;BMP180;6126;57.908;16.490;2022-11-20T14:24:24;100593.69;;;0.69
12126;BMP180;6126;57.908;16.490;2022-11-20T14:26:51;100591.13;;;0.68
12126;BMP180;6126;57.908;16.490;2022-11-20T14:29:19;100573.97;;;0.67
12126;BMP180;6126;57.908;16.490;2022-11-20T14:31:50;100574.00;;;0.65
12126;BMP180;6126;57.908;16.490;2022-11-20T14:34:23;100574.84;;;0.64
12126;BMP180;6126;57.908;16.490;2022-11-20T14:36:56;100573.16;;;0.63
12126;BMP180;6126;57.908;16.490;2022-11-20T14:39:36;100577.44;;;0.61
12126;BMP180;6126;57.908;16.490;2022-11-20T14:42:17;100560.31;;;0.61
12126;BMP180;6126;57.908;16.490;2022-11-20T14:44:44;100571.44;;;0.60
12126;BMP180;6126;57.908;16.490;2022-11-20T14:47:14;100569.75;;;0.59
12126;BMP180;6126;57.908;16.490;2022-11-20T14:49:41;100561.16;;;0.60
12126;BMP180;6126;57.908;16.490;2022-11-20T14:52:17;100554.31;;;0.61
12126;BMP180;6126;57.908;16.490;2022-11-20T14:54:46;100553.44;;;0.61
12126;BMP180;6126;57.908;16.490;2022-11-20T14:59:47;100532.06;;;0.56
12126;BMP180;6126;57.908;16.490;2022-11-20T15:02:13;100542.38;;;0.55
12126;BMP180;6126;57.908;16.490;2022-11-20T15:05:00;100542.38;;;0.55
12126;BMP180;6126;57.908;16.490;2022-11-20T15:07:37;100531.22;;;0.53
12126;BMP180;6126;57.908;16.490;2022-11-20T15:10:10;100526.94;;;0.52
12126;BMP180;6126;57.908;16.490;2022-11-20T15:12:52;100527.81;;;0.52
12126;BMP180;6126;57.908;16.490;2022-11-20T15:18:24;100517.53;;;0.52
12126;BMP180;6126;57.908;16.490;2022-11-20T15:20:55;100502.94;;;0.51
12126;BMP180;6126;57.908;16.490;2022-11-20T15:23:22;100495.25;;;0.51
12126;BMP180;6126;57.908;16.490;2022-11-20T15:25:49;100503.81;;;0.53
12126;BMP180;6126;57.908;16.490;2022-11-20T15:28:26;100489.22;;;0.55
12126;BMP180;6126;57.908;16.490;2022-11-20T15:30:52;100486.66;;;0.54
12126;BMP180;6126;57.908;16.490;2022-11-20T15:33:18;100478.94;;;0.55
12126;BMP180;6126;57.908;16.490;2022-11-20T15:35:44;100475.53;;;0.55
12126;BMP180;6126;57.908;16.490;2022-11-20T15:38:10;100477.22;;;0.54
12126;BMP180;6126;57.908;16.490;2022-11-20T15:40:36;100465.25;;;0.55
12126;BMP180;6126;57.908;16.490;2022-11-20T15:43:03;100466.94;;;0.56
12126;BMP180;6126;57.908;16.490;2022-11-20T15:45:41;100461.78;;;0.56
12126;BMP180;6126;57.908;16.490;2022-11-20T15:53:40;100448.91;;;0.57
12126;BMP180;6126;57.908;16.490;2022-11-20T15:56:12;100448.91;;;0.57
12126;BMP180;6126;57.908;16.490;2022-11-20T15:58:38;100436.09;;;0.56
12126;BMP180;6126;57.908;16.490;2022-11-20T16:01:04;100436.09;;;0.56
12126;BMP180;6126;57.908;16.490;2022-11-20T16:03:30;100436.09;;;0.56
12126;BMP180;6126;57.908;16.490;2022-11-20T16:05:56;100436.97;;;0.53
12126;BMP180;6126;57.908;16.490;2022-11-20T16:08:22;100429.25;;;0.53
12126;BMP180;6126;57.908;16.490;2022-11-20T16:10:47;100410.41;;;0.53
12126;BMP180;6126;57.908;16.490;2022-11-20T16:13:17;100416.41;;;0.52
12126;BMP180;6126;57.908;16.490;2022-11-20T16:16:18;100418.97;;;0.52
12126;BMP180;6126;57.908;16.490;2022-11-20T16:18:45;100407.00;;;0.51